Time;durP1;ratioP1;P1;durP2;ratioP2;P2;SDS_P1;SDS_P2;PMS_P1;PMS_P2;Temp;Humidity;BMP_temperature;BMP_pressure;BME280_temperature;BME280_humidity;BME280_pressure;Samples;Min_cycle;Max_cycle;Signal;HPM_P1;HPM_P2
2022/08/23 00:01:25;;;;;;;7.57;4.07;;;20.90;99.90;;;;;;4996898;28;20514;-51
2022/08/23 00:04:01;;;;;;;6.47;3.63;;;20.90;99.90;;;;;;4995430;28;20205;-51
2022/08/23 00:06:28;;;;;;;6.07;3.47;;;20.80;99.90;;;;;;4985983;28;20248;-52
2022/08/23 00:08:55;;;;;;;7.77;3.97;;;20.60;99.90;;;;;;4993170;28;20308;-50
2022/08/23 00:11:32;;;;;;;5.77;3.70;;;20.60;99.90;;;;;;4985246;28;21181;-51
2022/08/23 00:14:02;;;;;;;7.70;4.00;;;20.50;99.90;;;;;;4979387;28;20208;-51
2022/08/23 00:16:29;;;;;;;6.50;3.67;;;20.50;99.90;;;;;;4977851;28;20736;-52
2022/08/23 00:18:56;;;;;;;8.30;4.00;;;20.50;99.90;;;;;;4971873;28;20285;-51
2022/08/23 00:21:23;;;;;;;8.53;4.27;;;20.60;99.90;;;;;;4983792;28;20764;-51
2022/08/23 00:23:50;;;;;;;7.67;3.83;;;20.60;99.90;;;;;;4989188;28;20634;-51
2022/08/23 00:26:19;;;;;;;7.93;4.03;;;20.60;99.90;;;;;;4988096;28;20236;-51
2022/08/23 00:28:48;;;;;;;8.63;4.53;;;20.40;99.90;;;;;;4992849;28;20214;-51
2022/08/23 00:31:18;;;;;;;6.30;4.00;;;20.50;99.90;;;;;;4983046;28;20263;-51
2022/08/23 00:33:45;;;;;;;5.23;3.80;;;20.50;99.90;;;;;;4992667;28;20230;-51
2022/08/23 00:36:12;;;;;;;7.60;4.60;;;20.40;99.90;;;;;;4988761;28;20825;-51
2022/08/23 00:38:39;;;;;;;7.23;4.23;;;20.40;99.90;;;;;;4986106;28;20567;-51
2022/08/23 00:41:06;;;;;;;8.00;3.83;;;20.40;99.90;;;;;;4986573;28;20205;-52
2022/08/23 00:49:27;;;;;;;7.03;4.90;;;20.40;99.90;;;;;;4982861;28;20287;-52
2022/08/23 00:51:57;;;;;;;9.47;4.50;;;20.40;99.90;;;;;;4987494;28;20629;-52
2022/08/23 00:54:26;;;;;;;6.83;4.87;;;20.40;99.90;;;;;;4983893;28;20234;-53
2022/08/23 00:56:56;;;;;;;5.03;4.23;;;20.30;99.90;;;;;;4976316;28;20213;-52
2022/08/23 00:59:23;;;;;;;7.17;5.60;;;20.30;99.90;;;;;;4989187;28;20221;-51
2022/08/23 01:01:51;;;;;;;6.67;4.90;;;20.20;99.90;;;;;;4983050;28;20716;-52
2022/08/23 01:04:19;;;;;;;9.90;4.80;;;20.10;99.90;;;;;;4979029;28;20198;-51
2022/08/23 01:07:14;;;;;;;5.53;4.60;;;20.20;99.90;;;;;;4975928;28;20212;-52
2022/08/23 01:09:44;;;;;;;8.93;5.37;;;20.20;99.90;;;;;;4980275;28;20615;-52
2022/08/23 01:12:18;;;;;;;10.77;5.37;;;20.20;99.90;;;;;;4987256;28;20260;-50
2022/08/23 01:15:10;;;;;;;8.80;5.33;;;20.20;99.90;;;;;;4967068;28;20201;-51
2022/08/23 01:17:48;;;;;;;8.30;6.13;;;20.10;99.90;;;;;;4984497;28;20721;-50
2022/08/23 01:20:21;;;;;;;9.07;6.07;;;20.20;99.90;;;;;;4985488;28;20301;-52
2022/08/23 01:23:03;;;;;;;8.77;5.73;;;20.10;99.90;;;;;;4982446;28;20209;-53
2022/08/23 01:25:32;;;;;;;8.53;5.67;;;20.10;99.90;;;;;;4984810;28;20834;-51
2022/08/23 01:27:59;;;;;;;10.37;6.00;;;20.10;99.90;;;;;;4982739;28;20247;-52
2022/08/23 01:30:31;;;;;;;9.17;5.50;;;20.20;99.90;;;;;;4988162;28;20689;-49
2022/08/23 01:33:01;;;;;;;9.20;6.60;;;20.10;99.90;;;;;;4980582;28;20213;-52
2022/08/23 01:35:43;;;;;;;7.30;6.17;;;20.00;99.90;;;;;;4982820;28;20289;-51
2022/08/23 01:38:11;;;;;;;9.00;5.60;;;19.90;99.90;;;;;;4986124;28;20751;-51
2022/08/23 01:40:39;;;;;;;10.30;6.20;;;19.80;99.90;;;;;;4986461;28;20206;-51
2022/08/23 01:43:07;;;;;;;11.00;6.23;;;19.80;99.90;;;;;;4987862;28;20249;-51
2022/08/23 01:45:35;;;;;;;10.40;6.00;;;19.80;99.90;;;;;;4974073;28;21683;-53
2022/08/23 01:48:05;;;;;;;9.27;6.53;;;19.80;99.90;;;;;;4999248;28;20212;-52
2022/08/23 01:50:33;;;;;;;9.87;6.07;;;19.60;99.90;;;;;;4999083;28;21928;-53
2022/08/23 01:53:00;;;;;;;8.37;6.27;;;19.50;99.90;;;;;;4987252;28;20248;-51
2022/08/23 01:55:27;;;;;;;10.07;6.33;;;19.60;99.90;;;;;;4983604;28;20232;-52
2022/08/23 01:57:58;;;;;;;10.57;6.70;;;19.50;99.90;;;;;;4986576;28;20237;-51
2022/08/23 02:00:29;;;;;;;11.57;6.27;;;19.40;99.90;;;;;;4987413;28;20208;-51
2022/08/23 02:02:57;;;;;;;12.20;6.87;;;19.10;99.90;;;;;;4987831;28;20880;-53
2022/08/23 02:05:26;;;;;;;8.33;6.97;;;18.70;99.90;;;;;;4979356;28;20243;-53
2022/08/23 02:07:53;;;;;;;8.40;7.10;;;18.50;99.90;;;;;;4984512;28;20233;-52
2022/08/23 02:10:20;;;;;;;8.00;5.93;;;18.90;99.90;;;;;;4981361;28;20678;-51
2022/08/23 02:12:47;;;;;;;9.80;5.83;;;18.60;99.90;;;;;;4988682;28;20206;-53
2022/08/23 02:15:15;;;;;;;14.73;6.13;;;18.40;99.90;;;;;;4984632;28;20848;-51
2022/08/23 02:17:43;;;;;;;11.17;5.83;;;18.50;99.90;;;;;;4983101;28;20260;-50
2022/08/23 02:20:10;;;;;;;8.93;6.70;;;18.50;99.90;;;;;;4984079;28;20292;-50
2022/08/23 02:22:38;;;;;;;7.33;5.30;;;18.60;99.90;;;;;;4984740;28;20210;-52
2022/08/23 02:25:06;;;;;;;10.63;6.17;;;18.50;99.90;;;;;;4980703;28;20666;-51
2022/08/23 02:27:33;;;;;;;10.47;6.67;;;18.70;99.90;;;;;;4981461;28;20229;-51
2022/08/23 02:29:59;;;;;;;9.00;5.87;;;18.70;99.90;;;;;;4979880;28;20738;-51
2022/08/23 02:32:28;;;;;;;13.37;6.33;;;18.80;99.90;;;;;;4983622;28;20202;-51
2022/08/23 02:34:54;;;;;;;10.57;6.43;;;18.70;99.90;;;;;;4982105;28;20619;-51
2022/08/23 02:37:32;;;;;;;9.80;5.73;;;18.70;99.90;;;;;;4980690;28;20568;-51
2022/08/23 02:39:59;;;;;;;9.97;6.37;;;18.70;99.90;;;;;;4979682;28;20310;-52
2022/08/23 02:42:26;;;;;;;12.43;6.00;;;18.80;99.90;;;;;;4982251;28;21605;-53
2022/08/23 02:44:54;;;;;;;9.73;6.20;;;18.90;99.90;;;;;;4983297;28;20210;-53
2022/08/23 02:47:22;;;;;;;9.27;5.93;;;18.80;99.90;;;;;;4981509;28;20723;-51
2022/08/23 02:49:50;;;;;;;8.80;5.90;;;18.80;99.90;;;;;;4983284;28;20666;-50
2022/08/23 02:52:17;;;;;;;13.83;6.77;;;18.90;99.90;;;;;;4980567;28;20308;-50
2022/08/23 02:54:44;;;;;;;7.37;5.97;;;18.80;99.90;;;;;;4980127;28;20305;-51
2022/08/23 02:57:11;;;;;;;8.40;6.80;;;18.70;99.90;;;;;;4982376;28;20288;-50
2022/08/23 02:59:38;;;;;;;11.90;6.40;;;18.60;99.90;;;;;;4984551;28;20276;-52
2022/08/23 03:02:05;;;;;;;9.03;5.73;;;18.70;99.90;;;;;;4983693;28;20237;-51
2022/08/23 03:04:32;;;;;;;10.90;6.27;;;18.90;99.90;;;;;;4983839;28;20213;-50
2022/08/23 03:06:59;;;;;;;11.23;6.10;;;18.90;99.90;;;;;;4983753;28;20636;-51
2022/08/23 03:09:26;;;;;;;8.17;6.20;;;18.90;99.90;;;;;;4985798;28;20680;-51
2022/08/23 03:11:53;;;;;;;9.73;6.07;;;19.00;99.90;;;;;;4989348;28;20223;-51
2022/08/23 03:14:20;;;;;;;8.40;6.97;;;19.00;99.90;;;;;;4986654;28;20283;-50
2022/08/23 03:16:47;;;;;;;8.90;6.23;;;19.00;99.90;;;;;;4984834;28;20202;-51
2022/08/23 03:19:14;;;;;;;7.47;6.07;;;19.10;99.90;;;;;;4982245;28;20210;-52
2022/08/23 03:21:42;;;;;;;10.33;6.23;;;19.00;99.90;;;;;;4982209;28;20300;-51
2022/08/23 03:24:10;;;;;;;8.90;6.37;;;19.10;99.90;;;;;;4983701;28;20249;-53
2022/08/23 03:26:41;;;;;;;9.60;6.63;;;19.10;99.90;;;;;;4989083;28;20292;-52
2022/08/23 03:29:08;;;;;;;9.17;6.47;;;19.10;99.90;;;;;;4981034;28;20735;-51
2022/08/23 03:31:35;;;;;;;13.40;6.10;;;19.10;99.90;;;;;;4984717;28;20305;-51
2022/08/23 03:34:04;;;;;;;10.50;6.07;;;19.10;99.90;;;;;;4986231;28;20213;-49
2022/08/23 03:36:31;;;;;;;10.77;5.93;;;19.20;99.90;;;;;;4983979;28;20325;-53
2022/08/23 03:38:59;;;;;;;10.20;6.47;;;19.20;99.90;;;;;;4984406;28;20230;-50
2022/08/23 03:41:26;;;;;;;9.40;5.70;;;19.20;99.90;;;;;;4980313;28;20205;-51
2022/08/23 03:43:52;;;;;;;8.27;5.80;;;19.30;99.90;;;;;;4984438;28;20297;-51
2022/08/23 03:46:22;;;;;;;8.67;6.13;;;19.40;99.90;;;;;;4983066;28;20607;-51
2022/08/23 03:48:55;;;;;;;10.17;5.90;;;19.40;99.90;;;;;;4984003;28;20346;-53
2022/08/23 03:51:23;;;;;;;9.17;5.90;;;19.40;99.90;;;;;;4984672;28;20264;-52
2022/08/23 03:53:50;;;;;;;10.17;6.00;;;19.30;99.90;;;;;;4983846;28;20673;-51
2022/08/23 03:56:38;;;;;;;7.40;5.47;;;19.30;99.90;;;;;;4987775;28;20202;-53
2022/08/23 03:59:10;;;;;;;8.13;5.83;;;19.40;99.90;;;;;;4981813;28;20216;-51
2022/08/23 04:01:37;;;;;;;9.37;5.60;;;19.50;99.90;;;;;;4983650;28;20292;-52
2022/08/23 04:04:04;;;;;;;6.33;5.47;;;19.50;99.90;;;;;;4986357;28;20205;-53
2022/08/23 04:06:31;;;;;;;6.93;5.73;;;19.50;99.90;;;;;;4980145;28;20213;-53
2022/08/23 04:08:59;;;;;;;7.60;5.80;;;19.40;99.90;;;;;;4984800;28;20213;-52
2022/08/23 04:11:26;;;;;;;7.03;5.23;;;19.50;99.90;;;;;;4983122;28;20226;-53
2022/08/23 04:13:53;;;;;;;6.23;5.23;;;19.60;99.90;;;;;;4979821;28;20635;-51
2022/08/23 04:16:20;;;;;;;6.70;5.20;;;19.70;99.90;;;;;;4983747;28;20205;-49
2022/08/23 04:18:47;;;;;;;9.53;5.43;;;19.70;99.90;;;;;;4984871;28;20250;-52
2022/08/23 04:21:17;;;;;;;10.73;5.87;;;19.70;99.90;;;;;;4986212;28;20292;-52
2022/08/23 04:23:44;;;;;;;10.20;6.13;;;19.70;99.90;;;;;;4988739;28;20289;-52
2022/08/23 04:26:11;;;;;;;8.30;5.67;;;19.70;99.90;;;;;;4981310;28;20221;-50
2022/08/23 04:28:39;;;;;;;9.37;5.93;;;19.80;99.90;;;;;;4985828;28;20219;-51
2022/08/23 04:31:06;;;;;;;8.73;6.17;;;19.80;99.90;;;;;;4982341;28;20212;-51
2022/08/23 04:33:33;;;;;;;9.87;6.10;;;19.80;99.90;;;;;;4989212;28;20194;-51
2022/08/23 04:36:03;;;;;;;10.93;6.60;;;19.70;99.90;;;;;;4984467;28;20226;-52
2022/08/23 04:38:30;;;;;;;6.40;5.43;;;19.70;99.90;;;;;;4983619;28;20284;-51
2022/08/23 04:43:43;;;;;;;9.57;6.27;;;19.80;99.90;;;;;;4985910;28;20304;-52
2022/08/23 04:46:13;;;;;;;7.27;5.93;;;19.80;99.90;;;;;;4980611;28;20241;-51
2022/08/23 04:48:42;;;;;;;9.77;5.93;;;19.80;99.90;;;;;;4988351;28;20239;-51
2022/08/23 04:51:09;;;;;;;9.13;6.43;;;19.90;99.90;;;;;;4988600;28;20371;-51
2022/08/23 04:53:36;;;;;;;10.97;6.67;;;19.90;99.90;;;;;;4975864;28;20283;-50
2022/08/23 04:56:04;;;;;;;10.17;5.73;;;19.90;99.90;;;;;;4983081;28;20288;-50
2022/08/23 04:58:33;;;;;;;11.77;5.30;;;20.00;99.90;;;;;;4986409;28;20336;-52
2022/08/23 05:01:02;;;;;;;8.70;6.03;;;19.90;99.90;;;;;;4988575;28;20295;-51
2022/08/23 05:03:30;;;;;;;7.63;5.83;;;19.90;99.90;;;;;;4984821;28;20211;-49
2022/08/23 05:05:58;;;;;;;10.23;5.80;;;19.90;99.90;;;;;;4982261;28;20210;-51
2022/08/23 05:08:25;;;;;;;8.27;5.53;;;19.80;99.90;;;;;;4984167;28;20210;-52
2022/08/23 05:10:52;;;;;;;8.87;5.53;;;19.90;99.90;;;;;;4985809;28;20641;-53
2022/08/23 05:13:19;;;;;;;12.77;6.30;;;19.80;99.90;;;;;;4986714;28;20654;-54
2022/08/23 05:15:50;;;;;;;10.63;6.60;;;19.90;99.90;;;;;;4982695;28;21017;-54
2022/08/23 05:18:16;;;;;;;8.87;6.87;;;20.00;99.90;;;;;;4986863;28;20290;-52
2022/08/23 05:20:44;;;;;;;10.07;6.07;;;20.00;99.90;;;;;;4983077;28;20662;-51
2022/08/23 05:23:11;;;;;;;7.93;6.27;;;19.90;99.90;;;;;;4983025;28;20215;-54
2022/08/23 05:25:49;;;;;;;11.47;6.57;;;19.80;99.90;;;;;;4979935;28;20229;-52
2022/08/23 05:28:24;;;;;;;8.93;5.90;;;19.90;99.90;;;;;;5007033;28;20285;-52
2022/08/23 05:30:58;;;;;;;11.53;6.43;;;20.00;99.90;;;;;;4988824;28;20207;-54
2022/08/23 05:33:30;;;;;;;10.17;7.27;;;20.00;99.90;;;;;;4987910;28;20636;-53
2022/08/23 05:35:57;;;;;;;8.57;7.33;;;20.10;99.90;;;;;;4980804;28;20284;-50
2022/08/23 05:38:25;;;;;;;12.97;7.00;;;20.10;99.90;;;;;;4986104;28;20743;-53
2022/08/23 05:40:54;;;;;;;10.40;7.50;;;20.10;99.90;;;;;;4980522;28;20847;-51
2022/08/23 05:43:25;;;;;;;9.03;7.33;;;20.10;99.90;;;;;;4984241;28;20256;-53
2022/08/23 05:46:19;;;;;;;11.67;8.23;;;20.20;99.90;;;;;;4979088;28;20234;-52
2022/08/23 05:48:48;;;;;;;9.57;7.90;;;20.30;99.90;;;;;;4980394;28;20218;-51
2022/08/23 05:51:22;;;;;;;7.77;6.97;;;20.20;99.90;;;;;;4986947;28;21045;-51
2022/08/23 05:53:51;;;;;;;16.57;7.00;;;20.30;99.90;;;;;;4982472;28;20840;-53
2022/08/23 05:56:25;;;;;;;7.53;6.50;;;20.40;99.90;;;;;;4981943;28;20197;-51
2022/08/23 05:58:57;;;;;;;10.17;7.33;;;20.40;99.90;;;;;;4994454;28;20202;-51
2022/08/23 06:01:27;;;;;;;10.67;7.30;;;20.10;99.90;;;;;;4982179;28;20214;-50
2022/08/23 06:03:55;;;;;;;11.97;6.67;;;19.90;99.90;;;;;;4991250;28;20657;-51
2022/08/23 06:06:21;;;;;;;11.97;7.43;;;20.00;99.90;;;;;;4984038;28;20777;-51
2022/08/23 06:09:04;;;;;;;10.90;8.33;;;20.10;99.90;;;;;;4978132;28;20264;-52
2022/08/23 06:11:32;;;;;;;14.50;8.97;;;19.90;99.90;;;;;;4982603;28;20609;-51
2022/08/23 06:14:02;;;;;;;8.23;7.33;;;19.80;99.90;;;;;;4987665;28;20202;-51
2022/08/23 06:16:38;;;;;;;9.83;7.57;;;19.80;99.90;;;;;;4983275;28;20664;-50
2022/08/23 06:19:07;;;;;;;11.27;7.97;;;19.90;99.90;;;;;;4989337;28;20224;-52
2022/08/23 06:21:35;;;;;;;10.80;8.57;;;19.90;99.90;;;;;;4626523;28;10000483;-52
2022/08/23 06:24:02;;;;;;;10.17;8.13;;;20.00;99.90;;;;;;4981210;28;20809;-50
2022/08/23 06:26:37;;;;;;;9.53;7.90;;;20.00;99.90;;;;;;4984743;28;20284;-52
2022/08/23 06:29:08;;;;;;;12.17;9.03;;;20.00;99.90;;;;;;4988720;28;20475;-51
2022/08/23 06:31:48;;;;;;;9.57;8.53;;;20.20;99.90;;;;;;4993788;28;20214;-52
2022/08/23 06:34:19;;;;;;;12.80;9.70;;;20.20;99.90;;;;;;4990516;28;20287;-53
2022/08/23 06:36:53;;;;;;;14.27;9.23;;;20.40;99.90;;;;;;4987312;28;20708;-52
2022/08/23 06:39:22;;;;;;;13.83;9.77;;;20.40;99.90;;;;;;4987678;28;20284;-51
2022/08/23 06:41:50;;;;;;;13.17;8.97;;;20.50;99.90;;;;;;4983338;28;20226;-52
2022/08/23 06:44:18;;;;;;;16.47;9.67;;;20.70;99.90;;;;;;4989390;28;20216;-51
2022/08/23 06:46:46;;;;;;;16.17;10.77;;;20.90;99.90;;;;;;4967277;28;20261;-50
2022/08/23 06:49:15;;;;;;;13.43;10.40;;;20.90;99.90;;;;;;4981322;28;20637;-51
2022/08/23 06:51:47;;;;;;;12.13;10.40;;;21.10;99.90;;;;;;4976994;28;20308;-51
2022/08/23 06:54:15;;;;;;;12.67;10.33;;;21.30;99.90;;;;;;4980177;28;20249;-52
2022/08/23 06:56:42;;;;;;;13.67;11.20;;;21.40;99.90;;;;;;4978119;28;20579;-53
2022/08/23 06:59:10;;;;;;;12.30;9.50;;;21.40;99.90;;;;;;4984922;28;20206;-52
2022/08/23 07:02:02;;;;;;;13.83;10.00;;;21.50;99.90;;;;;;4988244;28;20689;-51
2022/08/23 07:04:39;;;;;;;13.23;9.90;;;21.50;99.90;;;;;;4961924;28;20237;-51
2022/08/23 07:07:08;;;;;;;13.80;10.17;;;21.80;99.90;;;;;;4981765;28;20288;-53
2022/08/23 07:09:39;;;;;;;14.43;10.30;;;21.90;99.90;;;;;;4978600;28;20205;-52
2022/08/23 07:12:06;;;;;;;13.67;10.50;;;22.10;99.90;;;;;;4987643;28;20754;-51
2022/08/23 07:14:35;;;;;;;13.93;10.30;;;22.30;99.90;;;;;;4992840;28;20657;-53
2022/08/23 07:17:02;;;;;;;12.10;10.20;;;22.40;99.90;;;;;;4975736;28;20220;-51
2022/08/23 07:19:32;;;;;;;12.70;10.00;;;22.50;99.90;;;;;;4979116;28;20289;-52
2022/08/23 07:22:00;;;;;;;13.87;9.80;;;22.50;99.90;;;;;;4971214;28;20891;-52
2022/08/23 07:24:27;;;;;;;12.10;9.80;;;22.70;99.90;;;;;;4974157;28;20260;-51
2022/08/23 07:27:00;;;;;;;15.03;9.77;;;22.60;99.90;;;;;;4982092;28;20765;-53
2022/08/23 07:29:28;;;;;;;11.43;9.10;;;22.60;99.90;;;;;;4982903;28;20248;-51
2022/08/23 07:31:56;;;;;;;11.77;8.83;;;22.70;99.90;;;;;;4977123;28;21234;-50
2022/08/23 07:34:25;;;;;;;13.47;9.07;;;22.80;99.90;;;;;;4975564;28;20776;-52
2022/08/23 07:36:52;;;;;;;13.50;8.77;;;23.00;99.90;;;;;;4968758;28;20217;-52
2022/08/23 07:39:22;;;;;;;11.77;6.80;;;23.30;99.90;;;;;;4979440;28;20189;-52
2022/08/23 07:41:51;;;;;;;11.93;8.40;;;23.30;99.90;;;;;;4974837;28;20288;-52
2022/08/23 07:44:19;;;;;;;10.10;7.87;;;23.30;99.90;;;;;;4979582;28;20217;-53
2022/08/23 07:46:52;;;;;;;10.37;8.00;;;23.30;99.90;;;;;;4973730;28;21183;-53
2022/08/23 07:49:19;;;;;;;10.80;8.07;;;23.50;99.90;;;;;;4994482;28;20208;-53
2022/08/23 07:51:49;;;;;;;11.60;8.17;;;23.40;99.90;;;;;;4978839;28;20221;-54
2022/08/23 07:54:18;;;;;;;13.00;7.93;;;23.60;99.90;;;;;;5011659;28;20253;-52
2022/08/23 07:56:45;;;;;;;17.13;8.13;;;23.70;99.90;;;;;;4988632;28;20205;-52
2022/08/23 07:59:13;;;;;;;12.10;8.40;;;24.00;99.90;;;;;;4989844;28;20208;-52
2022/08/23 08:01:42;;;;;;;11.17;7.03;;;24.10;99.90;;;;;;4979245;28;20251;-53
2022/08/23 08:04:10;;;;;;;13.40;8.50;;;24.20;99.90;;;;;;4985619;28;20221;-53
2022/08/23 08:06:42;;;;;;;13.40;8.03;;;24.10;99.90;;;;;;4976845;28;20677;-53
2022/08/23 08:09:10;;;;;;;10.27;7.83;;;24.10;99.90;;;;;;4984759;28;20225;-52
2022/08/23 08:11:39;;;;;;;12.07;7.67;;;24.40;99.90;;;;;;4979068;28;20205;-52
2022/08/23 08:14:08;;;;;;;13.60;7.93;;;24.50;99.90;;;;;;4975233;28;20238;-54
2022/08/23 08:16:46;;;;;;;9.37;6.80;;;24.50;99.90;;;;;;4981168;28;20272;-54
2022/08/23 08:19:15;;;;;;;9.03;7.60;;;24.60;99.90;;;;;;4981567;28;20260;-53
2022/08/23 08:21:47;;;;;;;10.07;6.87;;;24.50;99.90;;;;;;4982136;28;20703;-52
2022/08/23 08:24:16;;;;;;;10.57;6.57;;;24.60;99.90;;;;;;4989036;28;20292;-53
2022/08/23 08:26:44;;;;;;;10.53;7.40;;;25.00;99.90;;;;;;4981976;28;20683;-53
2022/08/23 08:29:12;;;;;;;9.40;7.23;;;25.10;99.90;;;;;;4986898;28;20293;-53
2022/08/23 08:31:41;;;;;;;8.50;7.57;;;24.80;99.90;;;;;;4991511;28;20201;-51
2022/08/23 08:34:08;;;;;;;10.73;7.13;;;24.90;99.90;;;;;;4984288;28;20519;-51
2022/08/23 08:36:37;;;;;;;13.67;7.30;;;25.00;99.90;;;;;;4985480;28;20206;-53
2022/08/23 08:39:28;;;;;;;9.50;7.40;;;25.00;99.90;;;;;;4990962;28;20206;-51
2022/08/23 08:42:03;;;;;;;9.70;6.80;;;25.10;99.90;;;;;;4983716;28;20212;-55
2022/08/23 08:44:56;;;;;;;7.87;6.20;;;25.30;99.90;;;;;;4984541;28;20575;-52
2022/08/23 08:47:44;;;;;;;12.17;7.60;;;25.80;99.90;;;;;;4987062;28;20724;-52
2022/08/23 08:50:43;;;;;;;10.27;6.70;;;26.00;99.90;;;;;;4985787;28;21451;-53
2022/08/23 08:53:32;;;;;;;10.70;6.37;;;26.20;99.90;;;;;;4987258;28;20351;-54
2022/08/23 08:56:14;;;;;;;11.13;7.03;;;26.30;99.90;;;;;;4989099;28;20796;-53
2022/08/23 08:58:52;;;;;;;9.13;5.90;;;26.30;99.90;;;;;;4988719;28;20252;-53
2022/08/23 09:01:21;;;;;;;9.17;6.33;;;26.50;99.90;;;;;;4986228;28;20299;-51
2022/08/23 09:03:48;;;;;;;7.43;5.90;;;26.70;99.90;;;;;;4988801;28;20836;-53
2022/08/23 09:06:20;;;;;;;10.53;5.83;;;26.60;99.90;;;;;;4985696;28;20698;-50
2022/08/23 09:09:14;;;;;;;9.13;6.30;;;26.70;99.90;;;;;;4994184;28;20205;-51
2022/08/23 09:11:50;;;;;;;11.40;7.33;;;26.60;99.90;;;;;;4984798;28;20283;-53
2022/08/23 09:14:24;;;;;;;13.47;6.30;;;26.70;99.90;;;;;;4982209;28;20951;-51
2022/08/23 09:17:03;;;;;;;9.60;5.93;;;26.60;99.90;;;;;;4993411;28;20249;-51
2022/08/23 09:19:36;;;;;;;10.27;6.13;;;26.90;99.90;;;;;;4991824;28;20646;-53
2022/08/23 09:22:13;;;;;;;9.30;6.30;;;27.10;99.90;;;;;;4992227;28;20213;-51
2022/08/23 09:24:41;;;;;;;12.83;5.97;;;27.00;99.90;;;;;;4981022;28;20228;-52
2022/08/23 09:27:09;;;;;;;9.27;5.73;;;27.00;99.90;;;;;;4994047;28;20197;-52
2022/08/23 09:29:38;;;;;;;9.23;4.80;;;27.00;99.90;;;;;;4994007;28;20297;-52
2022/08/23 09:32:25;;;;;;;11.17;5.10;;;27.00;99.90;;;;;;4993010;28;20304;-53
2022/08/23 09:35:04;;;;;;;8.20;4.43;;;26.90;99.90;;;;;;4994844;28;20279;-52
2022/08/23 09:37:46;;;;;;;8.07;2.97;;;26.80;99.90;;;;;;4990391;28;20212;-53
2022/08/23 09:40:18;;;;;;;5.83;2.83;;;27.00;99.90;;;;;;4989243;28;20264;-52
2022/08/23 09:43:02;;;;;;;8.00;3.37;;;27.10;99.90;;;;;;4989042;28;20292;-52
2022/08/23 09:45:35;;;;;;;7.50;2.57;;;27.30;99.90;;;;;;4989195;28;20468;-56
2022/08/23 09:48:03;;;;;;;5.50;2.67;;;27.10;99.90;;;;;;4991052;28;20245;-55
2022/08/23 09:50:32;;;;;;;7.65;2.35;;;27.50;99.90;;;;;;4990357;28;20201;-55
2022/08/23 09:53:06;;;;;;;7.30;2.40;;;27.20;99.90;;;;;;4988054;28;20210;-53
2022/08/23 09:55:41;;;;;;;6.40;2.78;;;27.30;99.90;;;;;;4986214;28;20220;-54
2022/08/23 09:58:22;;;;;;;8.25;4.50;;;27.10;99.90;;;;;;5009669;28;20256;-55
2022/08/23 10:01:25;;;;;;;5.22;3.72;;;27.20;99.90;;;;;;4991764;28;20206;-55
2022/08/23 10:04:13;;;;;;;5.15;2.70;;;27.40;99.90;;;;;;4963950;28;20691;-55
2022/08/23 10:06:44;;;;;;;9.10;2.97;;;27.10;99.90;;;;;;4991981;28;20247;-54
2022/08/23 10:09:29;;;;;;;11.45;3.35;;;27.30;99.90;;;;;;4991060;28;20202;-54
2022/08/23 10:11:59;;;;;;;6.03;3.65;;;27.50;99.90;;;;;;5024742;28;20971;-55
2022/08/23 10:14:28;;;;;;;10.52;3.85;;;27.30;99.90;;;;;;4992873;28;20213;-54
2022/08/23 10:17:06;;;;;;;7.00;3.42;;;27.30;99.90;;;;;;4990484;28;20216;-54
2022/08/23 10:19:56;;;;;;;8.77;4.10;;;27.00;99.90;;;;;;4993873;28;20646;-54
2022/08/23 10:22:26;;;;;;;10.20;4.53;;;27.30;99.90;;;;;;4995679;28;20259;-54
2022/08/23 10:25:17;;;;;;;9.45;5.22;;;27.30;99.90;;;;;;4991905;28;20209;-54
2022/08/23 10:31:04;;;;;;;12.25;4.28;;;27.60;99.90;;;;;;4994138;28;20626;-54
2022/08/23 10:33:48;;;;;;;6.72;2.88;;;27.50;99.90;;;;;;4993633;28;20688;-54
2022/08/23 10:36:26;;;;;;;7.18;3.00;;;27.40;99.90;;;;;;4991663;28;20272;-54
2022/08/23 10:38:57;;;;;;;5.90;2.80;;;27.50;99.90;;;;;;4997454;28;20205;-54
2022/08/23 10:41:36;;;;;;;10.98;3.75;;;27.50;99.90;;;;;;4995096;28;20570;-54
2022/08/23 10:44:09;;;;;;;6.63;2.55;;;27.60;99.90;;;;;;4996926;28;20228;-54
2022/08/23 10:46:43;;;;;;;4.07;2.38;;;27.70;99.90;;;;;;4990587;28;20710;-55
2022/08/23 10:49:12;;;;;;;5.47;3.00;;;27.70;99.90;;;;;;4992175;28;20241;-54
2022/08/23 10:51:43;;;;;;;7.23;2.63;;;27.70;99.90;;;;;;4991356;28;20237;-54
2022/08/23 10:54:58;;;;;;;4.30;1.97;;;27.40;99.90;;;;;;4992665;28;20698;-55
2022/08/23 10:57:39;;;;;;;3.97;2.40;;;27.60;99.90;;;;;;4995883;28;20243;-54
2022/08/23 11:00:15;;;;;;;4.77;2.20;;;27.90;99.90;;;;;;4997407;28;20292;-54
2022/08/23 11:02:58;;;;;;;6.07;2.80;;;27.70;99.90;;;;;;4994102;28;20205;-55
2022/08/23 11:05:29;;;;;;;5.13;2.27;;;28.10;99.90;;;;;;4993288;28;20213;-54
2022/08/23 11:08:09;;;;;;;5.93;2.97;;;28.10;99.90;;;;;;4990784;28;20248;-54
2022/08/23 11:10:42;;;;;;;7.73;2.40;;;28.50;99.90;;;;;;4992691;28;20663;-54
2022/08/23 11:13:28;;;;;;;6.13;2.10;;;28.70;99.90;;;;;;4992916;28;20219;-54
2022/08/23 11:16:14;;;;;;;3.87;1.67;;;28.30;99.90;;;;;;4995841;28;20279;-57
2022/08/23 11:18:44;;;;;;;3.40;2.20;;;28.30;99.90;;;;;;4994194;28;20217;-55
2022/08/23 11:21:17;;;;;;;6.38;2.35;;;28.40;99.90;;;;;;4996778;28;20633;-55
2022/08/23 11:23:44;;;;;;;3.38;1.60;;;29.10;99.90;;;;;;4997800;28;20724;-55
2022/08/23 11:26:35;;;;;;;9.77;2.40;;;29.30;99.90;;;;;;5001057;28;20233;-55
2022/08/23 11:29:05;;;;;;;5.90;2.40;;;30.00;99.90;;;;;;4997736;28;20289;-55
2022/08/23 11:32:36;;;;;;;6.00;2.50;;;29.80;99.90;;;;;;4998233;28;20581;-56
2022/08/23 11:35:07;;;;;;;3.88;1.73;;;29.60;99.90;;;;;;4962718;28;20293;-56
2022/08/23 11:38:10;;;;;;;4.22;1.58;;;29.40;99.90;;;;;;4996450;28;20304;-56
2022/08/23 11:40:41;;;;;;;3.72;1.60;;;30.10;99.90;;;;;;4924492;29;20839;-55
2022/08/23 11:43:24;;;;;;;3.28;1.85;;;30.40;99.90;;;;;;4924531;29;20216;-55
2022/08/23 11:45:51;;;;;;;4.45;1.90;;;30.10;99.90;;;;;;4922543;29;20283;-55
2022/08/23 11:48:37;;;;;;;5.05;1.80;;;30.30;99.90;;;;;;4923148;29;20212;-55
2022/08/23 11:51:24;;;;;;;6.90;2.70;;;30.90;99.90;;;;;;4923859;29;20212;-54
2022/08/23 11:53:53;;;;;;;5.28;1.85;;;30.80;99.90;;;;;;4921325;29;20259;-56
2022/08/23 11:56:50;;;;;;;6.35;2.38;;;31.30;99.90;;;;;;4922903;29;20737;-56
2022/08/23 11:59:38;;;;;;;5.80;1.88;;;31.30;99.90;;;;;;4921603;29;20243;-56
2022/08/23 12:02:46;;;;;;;4.80;1.98;;;32.80;99.90;;;;;;4921270;29;20212;-55
2022/08/23 12:05:22;;;;;;;5.57;2.00;;;32.20;99.90;;;;;;4911684;29;20704;-55
2022/08/23 12:08:01;;;;;;;3.50;2.10;;;32.00;99.90;;;;;;4910144;29;20208;-54
2022/08/23 12:10:40;;;;;;;4.53;2.20;;;30.90;99.90;;;;;;4911232;29;20216;-54
2022/08/23 12:13:19;;;;;;;4.78;2.40;;;31.10;99.90;;;;;;4912704;29;20232;-54
2022/08/23 12:16:08;;;;;;;4.32;2.10;;;31.30;99.90;;;;;;4937069;28;20203;-54
2022/08/23 12:18:45;;;;;;;5.03;2.33;;;31.80;99.90;;;;;;4940839;28;20621;-54
2022/08/23 12:21:19;;;;;;;5.10;2.00;;;31.50;99.90;;;;;;4940416;28;20254;-54
2022/08/23 12:23:52;;;;;;;6.57;2.45;;;32.40;99.90;;;;;;4941096;28;20243;-56
2022/08/23 12:26:28;;;;;;;6.60;2.03;;;31.80;99.90;;;;;;4936770;28;20207;-55
2022/08/23 12:29:01;;;;;;;3.10;1.73;;;32.40;99.90;;;;;;4937168;28;20202;-57
2022/08/23 12:32:04;;;;;;;7.65;2.40;;;33.00;99.90;;;;;;4936783;28;20321;-55
2022/08/23 12:34:46;;;;;;;8.23;2.88;;;31.80;99.90;;;;;;4936734;28;20255;-56
2022/08/23 12:37:29;;;;;;;6.90;2.47;;;31.80;99.90;;;;;;4990643;28;20209;-56
2022/08/23 12:40:00;;;;;;;3.40;2.03;;;31.50;99.90;;;;;;4992180;28;20671;-64
2022/08/23 12:42:34;;;;;;;3.33;2.03;;;31.70;99.90;;;;;;4995170;28;20202;-63
2022/08/23 12:45:17;;;;;;;4.95;2.03;;;30.80;99.90;;;;;;4995904;28;20206;-54
2022/08/23 12:47:55;;;;;;;7.35;2.13;;;30.10;99.90;;;;;;4987025;28;20304;-56
2022/08/23 12:50:27;;;;;;;5.90;2.35;;;30.40;99.90;;;;;;4993891;28;20386;-55
2022/08/23 12:53:26;;;;;;;3.90;1.77;;;30.10;99.90;;;;;;4981656;28;20221;-56
2022/08/23 12:56:00;;;;;;;4.38;1.58;;;30.20;99.90;;;;;;4984548;28;20228;-55
2022/08/23 12:58:31;;;;;;;4.82;1.70;;;32.30;99.90;;;;;;5022894;28;20213;-54
2022/08/23 13:01:05;;;;;;;4.72;1.88;;;32.10;99.90;;;;;;4990474;28;20202;-57
2022/08/23 13:03:38;;;;;;;2.53;1.50;;;32.40;99.90;;;;;;4989665;28;20542;-56
2022/08/23 13:06:11;;;;;;;3.55;1.20;;;31.10;99.90;;;;;;4984355;28;20344;-55
2022/08/23 13:08:48;;;;;;;5.53;2.00;;;31.60;99.90;;;;;;4986420;28;20849;-55
2022/08/23 13:11:19;;;;;;;4.47;1.60;;;30.20;99.90;;;;;;4991990;28;20264;-55
2022/08/23 13:13:46;;;;;;;5.82;1.40;;;30.60;99.90;;;;;;4994542;28;20305;-55
2022/08/23 13:16:25;;;;;;;3.35;1.40;;;30.70;99.90;;;;;;4984807;28;20237;-55
2022/08/23 13:18:54;;;;;;;2.10;1.10;;;31.40;99.90;;;;;;4982854;28;20214;-55
2022/08/23 13:21:21;;;;;;;3.97;1.33;;;31.70;99.90;;;;;;4987032;28;20816;-55
2022/08/23 13:23:55;;;;;;;3.15;1.17;;;31.70;99.90;;;;;;4986261;28;20300;-55